createdAt,value
2018-11-05T00:00:46.696Z,100771.31
2018-11-05T00:03:15.582Z,100769.53
2018-11-05T00:05:47.874Z,100754.70
2018-11-05T00:08:23.465Z,100757.62
2018-11-05T00:10:58.088Z,100744.41
2018-11-05T00:13:39.680Z,100741.86
2018-11-05T00:16:20.608Z,100744.45
2018-11-05T00:18:49.552Z,100738.37
2018-11-05T00:21:18.455Z,100743.92
2018-11-05T00:23:47.352Z,100742.41
2018-11-05T00:26:16.213Z,100735.60
2018-11-05T00:28:57.896Z,100742.27
2018-11-05T00:31:27.834Z,100737.52
2018-11-05T00:33:56.762Z,100740.20
2018-11-05T00:36:25.635Z,100738.64
2018-11-05T00:38:54.526Z,100737.08
2018-11-05T00:41:45.847Z,100736.41
2018-11-05T00:44:14.728Z,100734.44
2018-11-05T00:46:43.668Z,100725.20
2018-11-05T00:49:22.309Z,100720.15
2018-11-05T00:51:51.192Z,100709.09
2018-11-05T00:54:22.407Z,100715.63
2018-11-05T00:56:53.443Z,100707.97
2018-11-05T00:59:22.313Z,100703.86
2018-11-05T01:01:51.216Z,100698.63
2018-11-05T01:04:25.929Z,100700.38
2018-11-05T01:06:57.960Z,100699.17
2018-11-05T01:12:20.254Z,100683.99
2018-11-05T01:14:49.144Z,100687.31
2018-11-05T01:17:18.038Z,100684.09
2018-11-05T01:19:46.941Z,100678.55
2018-11-05T01:22:15.847Z,100677.97
2018-11-05T01:24:44.915Z,100682.30
2018-11-05T01:27:13.848Z,100682.80
2018-11-05T01:29:48.331Z,100678.36
2018-11-05T01:32:17.230Z,100669.11
2018-11-05T01:34:46.082Z,100671.58
2018-11-05T01:40:21.629Z,100681.92
2018-11-05T01:42:55.820Z,100677.89
2018-11-05T01:45:24.674Z,100673.86
2018-11-05T01:47:53.525Z,100666.12
2018-11-05T01:50:22.440Z,100669.64
2018-11-05T01:52:56.840Z,100662.94
2018-11-05T01:55:25.700Z,100670.28
2018-11-05T01:57:54.596Z,100670.72
2018-11-05T02:00:23.512Z,100670.23
2018-11-05T02:02:52.414Z,100670.73
2018-11-05T02:05:21.308Z,100655.70
2018-11-05T02:07:50.251Z,100660.53
2018-11-05T02:10:19.790Z,100662.31
2018-11-05T02:12:48.612Z,100655.30
2018-11-05T02:15:22.391Z,100656.20
2018-11-05T02:17:51.447Z,100657.27
2018-11-05T02:20:20.317Z,100648.98
2018-11-05T02:22:55.025Z,100646.25
2018-11-05T02:25:23.950Z,100644.96
2018-11-05T02:27:52.824Z,100647.42
2018-11-05T02:30:21.765Z,100648.27
2018-11-05T02:32:50.704Z,100643.77
2018-11-05T02:35:19.646Z,100641.17
2018-11-05T02:37:55.301Z,100626.81
2018-11-05T02:40:24.231Z,100625.82
2018-11-05T02:42:53.134Z,100624.56
2018-11-05T02:45:42.462Z,100631.91
2018-11-05T02:48:22.934Z,100630.48
2018-11-05T02:50:51.821Z,100634.05
2018-11-05T02:53:30.380Z,100638.44
2018-11-05T02:56:12.738Z,100641.95
2018-11-05T02:58:41.704Z,100642.95
2018-11-05T03:01:10.558Z,100644.16
2018-11-05T03:03:39.462Z,100640.22
2018-11-05T03:06:10.362Z,100637.27
2018-11-05T03:08:40.379Z,100633.16
2018-11-05T03:11:10.308Z,100635.75
2018-11-05T03:13:39.293Z,100628.91
2018-11-05T03:16:27.015Z,100629.50
2018-11-05T03:18:55.942Z,100624.98
2018-11-05T03:21:24.816Z,100630.56
2018-11-05T03:23:53.747Z,100625.30
2018-11-05T03:26:31.218Z,100630.37
2018-11-05T03:29:17.210Z,100625.52
2018-11-05T03:31:48.203Z,100621.84
2018-11-05T03:34:17.068Z,100619.03
2018-11-05T03:36:45.971Z,100623.19
2018-11-05T03:39:27.026Z,100623.27
2018-11-05T03:41:55.921Z,100615.55
2018-11-05T03:44:24.810Z,100621.62
2018-11-05T03:46:58.175Z,100625.15
2018-11-05T03:49:27.017Z,100625.99
2018-11-05T03:51:55.926Z,100624.21
2018-11-05T03:54:24.826Z,100619.91
2018-11-05T03:56:53.743Z,100611.84
2018-11-05T03:59:22.626Z,100604.55
2018-11-05T04:02:12.464Z,100609.28
2018-11-05T04:04:41.594Z,100601.95
2018-11-05T04:07:10.497Z,100592.16
2018-11-05T04:09:43.113Z,100596.09
2018-11-05T04:12:12.071Z,100599.48
2018-11-05T04:14:40.950Z,100594.66
2018-11-05T04:17:10.970Z,100588.72
2018-11-05T04:19:39.868Z,100585.85
2018-11-05T04:22:08.717Z,100592.12
2018-11-05T04:24:37.592Z,100592.83
2018-11-05T04:27:14.176Z,100597.13
2018-11-05T04:29:51.062Z,100585.37
2018-11-05T04:32:39.191Z,100587.15
2018-11-05T04:35:21.197Z,100591.31
2018-11-05T04:38:00.374Z,100588.91
2018-11-05T04:40:30.446Z,100580.05
2018-11-05T04:42:59.335Z,100582.99
2018-11-05T04:45:33.305Z,100581.96
2018-11-05T04:48:18.488Z,100583.08
2018-11-05T04:50:54.640Z,100583.89
2018-11-05T04:53:30.029Z,100578.84
2018-11-05T04:56:06.122Z,100583.94
2018-11-05T05:01:28.101Z,100590.95
2018-11-05T05:04:01.138Z,100587.46
2018-11-05T05:06:42.319Z,100587.41
2018-11-05T05:09:22.289Z,100586.16
2018-11-05T05:11:57.316Z,100591.12
2018-11-05T05:14:34.598Z,100587.59
2018-11-05T05:17:14.228Z,100579.63
2018-11-05T05:19:48.556Z,100584.16
2018-11-05T05:22:17.569Z,100590.50
2018-11-05T05:24:46.573Z,100589.02
2018-11-05T05:27:15.452Z,100585.13
2018-11-05T05:29:44.400Z,100579.06
2018-11-05T05:32:15.321Z,100578.16
2018-11-05T05:34:54.304Z,100573.69
2018-11-05T05:37:35.232Z,100566.08
2018-11-05T05:40:09.422Z,100549.28
2018-11-05T05:42:39.171Z,100555.22
2018-11-05T05:45:10.835Z,100556.03
2018-11-05T05:47:39.917Z,100551.05
2018-11-05T05:50:11.502Z,100550.34
2018-11-05T05:52:45.509Z,100562.11
2018-11-05T05:55:14.960Z,100558.48
2018-11-05T05:57:44.906Z,100551.28
2018-11-05T06:00:15.660Z,100559.58
2018-11-05T06:02:56.325Z,100552.41
2018-11-05T06:05:25.330Z,100552.53
2018-11-05T06:07:54.225Z,100562.87
2018-11-05T06:10:23.125Z,100561.45
2018-11-05T06:12:52.040Z,100559.30
2018-11-05T06:15:22.053Z,100554.10
2018-11-05T06:17:50.936Z,100565.87
2018-11-05T06:20:20.605Z,100567.75
2018-11-05T06:22:56.702Z,100573.69
2018-11-05T06:25:25.586Z,100587.29
2018-11-05T06:27:54.527Z,100590.19
2018-11-05T06:30:23.383Z,100599.89
2018-11-05T06:36:09.108Z,100603.37
2018-11-05T06:38:37.987Z,100598.38
2018-11-05T06:41:07.507Z,100596.63
2018-11-05T06:43:36.424Z,100597.92
2018-11-05T06:46:05.641Z,100587.91
2018-11-05T06:48:51.058Z,100589.87
2018-11-05T06:51:33.185Z,100588.09
2018-11-05T06:54:02.781Z,100591.08
2018-11-05T06:56:37.655Z,100585.89
2018-11-05T06:59:14.059Z,100594.13
2018-11-05T07:01:48.575Z,100605.03
2018-11-05T07:04:20.611Z,100601.00
2018-11-05T07:06:49.690Z,100598.23
2018-11-05T07:09:20.748Z,100602.25
2018-11-05T07:12:02.059Z,100595.00
2018-11-05T07:14:32.093Z,100597.69
2018-11-05T07:17:04.643Z,100593.30
2018-11-05T07:19:51.573Z,100584.91
2018-11-05T07:22:20.468Z,100587.32
2018-11-05T07:24:54.251Z,100584.08
2018-11-05T07:27:33.222Z,100579.45
2018-11-05T07:30:14.320Z,100570.59
2018-11-05T07:32:45.670Z,100566.42
2018-11-05T07:35:15.982Z,100562.33
2018-11-05T07:37:46.110Z,100556.61
2018-11-05T07:40:17.946Z,100550.05
2018-11-05T07:43:04.242Z,100546.02
2018-11-05T07:45:39.980Z,100551.34
2018-11-05T07:48:08.916Z,100558.67
2018-11-05T07:50:38.847Z,100563.98
2018-11-05T07:53:08.768Z,100566.65
2018-11-05T07:55:49.102Z,100567.72
2018-11-05T07:58:21.281Z,100565.34
2018-11-05T08:03:45.152Z,100568.72
2018-11-05T08:06:18.485Z,100573.59
2018-11-05T08:08:47.419Z,100575.81
2018-11-05T08:14:14.734Z,100574.41
2018-11-05T08:16:50.222Z,100576.63
2018-11-05T08:19:19.140Z,100560.27
2018-11-05T08:21:52.072Z,100561.23
2018-11-05T08:24:21.024Z,100553.95
2018-11-05T08:27:08.028Z,100549.34
2018-11-05T08:29:43.826Z,100553.96
2018-11-05T08:35:07.432Z,100559.81
2018-11-05T08:37:38.380Z,100543.61
2018-11-05T08:40:20.369Z,100542.90
2018-11-05T08:42:50.122Z,100543.69
2018-11-05T08:45:20.308Z,100543.69
2018-11-05T08:48:00.194Z,100552.34
2018-11-05T08:50:29.278Z,100547.09
2018-11-05T08:52:58.068Z,100537.84
2018-11-05T08:55:27.531Z,100524.74
2018-11-05T08:57:56.476Z,100524.48
2018-11-05T09:00:30.635Z,100531.09
2018-11-05T09:02:59.936Z,100528.58
2018-11-05T09:05:33.051Z,100518.88
2018-11-05T09:08:01.973Z,100527.30
2018-11-05T09:10:54.717Z,100529.52
2018-11-05T09:13:23.316Z,100519.39
2018-11-05T09:15:52.169Z,100517.38
2018-11-05T09:18:21.126Z,100511.50
2018-11-05T09:21:00.335Z,100515.27
2018-11-05T09:23:29.338Z,100510.09
2018-11-05T09:25:58.220Z,100519.27
2018-11-05T09:28:27.080Z,100514.09
2018-11-05T09:31:08.789Z,100517.14
2018-11-05T09:33:39.722Z,100516.61
2018-11-05T09:36:08.591Z,100523.34
2018-11-05T09:38:39.574Z,100515.62
2018-11-05T09:41:10.520Z,100524.18
2018-11-05T09:43:49.844Z,100530.31
2018-11-05T09:46:30.677Z,100522.71
2018-11-05T09:49:03.648Z,100521.71
2018-11-05T09:51:33.071Z,100519.99
2018-11-05T09:54:02.006Z,100513.06
2018-11-05T09:56:30.993Z,100512.59
2018-11-05T09:59:00.284Z,100502.31
2018-11-05T10:01:34.226Z,100503.45
2018-11-05T10:06:57.223Z,100497.63
2018-11-05T10:09:27.163Z,100500.53
2018-11-05T10:12:00.143Z,100507.84
2018-11-05T10:14:29.012Z,100500.99
2018-11-05T10:17:09.552Z,100496.38
2018-11-05T10:19:40.494Z,100496.66
2018-11-05T10:22:09.507Z,100488.78
2018-11-05T10:24:38.499Z,100497.52
2018-11-05T10:27:07.358Z,100503.27
2018-11-05T10:29:36.303Z,100496.33
2018-11-05T10:32:09.081Z,100494.58
2018-11-05T10:34:38.089Z,100492.19
2018-11-05T10:37:07.138Z,100497.83
2018-11-05T10:42:46.774Z,100497.83
2018-11-05T10:45:34.113Z,100501.08
2018-11-05T10:48:03.050Z,100484.23
2018-11-05T10:53:33.782Z,100480.19
2018-11-05T10:56:02.763Z,100469.40
2018-11-05T10:58:31.632Z,100478.69
2018-11-05T11:01:05.902Z,100472.58
2018-11-05T11:03:39.895Z,100468.77
2018-11-05T11:06:26.952Z,100466.84
2018-11-05T11:09:08.406Z,100463.47
2018-11-05T11:11:49.379Z,100461.38
2018-11-05T11:14:25.708Z,100452.20
2018-11-05T11:17:02.258Z,100452.61
2018-11-05T11:19:42.920Z,100443.00
2018-11-05T11:22:36.077Z,100446.94
2018-11-05T11:25:07.420Z,100449.30
2018-11-05T11:27:37.713Z,100455.76
2018-11-05T11:30:11.465Z,100461.30
2018-11-05T11:32:51.630Z,100447.60
2018-11-05T11:35:24.492Z,100443.55
2018-11-05T11:37:54.482Z,100450.78
2018-11-05T11:40:28.969Z,100453.27
2018-11-05T11:42:59.057Z,100448.58
2018-11-05T11:45:32.566Z,100438.88
2018-11-05T11:48:01.461Z,100424.20
2018-11-05T11:50:31.487Z,100409.52
2018-11-05T11:53:02.529Z,100402.52
2018-11-05T11:55:51.153Z,100418.17
2018-11-05T12:07:10.476Z,100409.48
2018-11-05T12:09:45.172Z,100412.81
2018-11-05T12:12:23.904Z,100407.61
2018-11-05T12:15:10.893Z,100411.33
2018-11-05T12:17:41.365Z,100402.06
2018-11-05T12:20:17.754Z,100405.43
2018-11-05T12:22:57.036Z,100398.80
2018-11-05T12:25:33.483Z,100390.61
2018-11-05T12:28:09.373Z,100388.20
2018-11-05T12:30:43.497Z,100379.89
2018-11-05T12:33:17.592Z,100383.88
2018-11-05T12:36:09.210Z,100384.80
2018-11-05T12:38:39.790Z,100389.73
2018-11-05T12:44:10.861Z,100384.64
2018-11-05T12:49:49.787Z,100364.56
2018-11-05T12:52:36.743Z,100367.89
2018-11-05T12:55:11.534Z,100366.57
2018-11-05T12:57:43.872Z,100364.78
2018-11-05T13:00:18.984Z,100361.64
2018-11-05T13:02:55.479Z,100361.04
2018-11-05T13:05:30.742Z,100357.60
2018-11-05T13:08:05.619Z,100355.67
2018-11-05T13:10:34.552Z,100349.88
2018-11-05T13:13:06.855Z,100355.41
2018-11-05T13:15:43.151Z,100349.22
2018-11-05T13:18:12.492Z,100353.28
2018-11-05T13:20:41.385Z,100351.99
2018-11-05T13:23:10.249Z,100341.95
2018-11-05T13:25:39.176Z,100334.02
2018-11-05T13:28:08.077Z,100339.61
2018-11-05T13:30:40.176Z,100341.55
2018-11-05T13:33:10.074Z,100336.14
2018-11-05T13:35:43.103Z,100334.56
2018-11-05T13:38:12.845Z,100340.93
2018-11-05T13:43:42.296Z,100339.13
2018-11-05T13:46:11.406Z,100343.95
2018-11-05T13:49:01.641Z,100348.48
2018-11-05T13:51:31.073Z,100347.42
2018-11-05T13:54:00.121Z,100343.54
2018-11-05T13:59:28.607Z,100324.87
2018-11-05T14:01:57.601Z,100326.61
2018-11-05T14:04:29.769Z,100323.84
2018-11-05T14:07:01.705Z,100321.92
2018-11-05T14:09:32.974Z,100322.88
2018-11-05T14:12:02.957Z,100321.02
2018-11-05T14:14:35.757Z,100321.92
2018-11-05T14:17:09.884Z,100319.34
2018-11-05T14:19:45.281Z,100321.01
2018-11-05T14:22:18.420Z,100313.48
2018-11-05T14:27:58.970Z,100302.45
2018-11-05T14:33:21.768Z,100292.91
2018-11-05T14:36:09.489Z,100295.20
2018-11-05T14:38:43.096Z,100286.61
2018-11-05T14:41:11.916Z,100285.38
2018-11-05T14:43:44.194Z,100287.87
2018-11-05T14:46:33.180Z,100294.09
2018-11-05T14:49:02.095Z,100301.66
2018-11-05T14:51:30.991Z,100298.23
2018-11-05T14:53:59.884Z,100296.11
2018-11-05T14:56:28.793Z,100302.43
2018-11-05T14:58:57.951Z,100302.72
2018-11-05T15:01:26.923Z,100298.61
2018-11-05T15:06:58.978Z,100297.83
2018-11-05T15:09:27.936Z,100295.41
2018-11-05T15:15:00.214Z,100288.08
2018-11-05T15:17:30.370Z,100284.03
2018-11-05T15:19:59.726Z,100291.21
2018-11-05T15:22:30.187Z,100290.48
2018-11-05T15:25:05.784Z,100285.98
2018-11-05T15:27:35.152Z,100285.37
2018-11-05T15:30:18.217Z,100291.29
2018-11-05T15:32:47.248Z,100293.90
2018-11-05T15:43:58.612Z,100300.47
2018-11-05T15:46:49.554Z,100304.70
2018-11-05T15:49:18.481Z,100304.34
2018-11-05T15:51:51.212Z,100306.52
2018-11-05T15:54:34.792Z,100319.45
2018-11-05T15:57:03.497Z,100316.42
2018-11-05T15:59:50.507Z,100316.31
2018-11-05T16:02:25.443Z,100322.91
2018-11-05T16:04:58.036Z,100325.88
2018-11-05T16:07:27.010Z,100326.93
2018-11-05T16:09:56.042Z,100318.35
2018-11-05T16:12:30.545Z,100317.22
2018-11-05T16:14:59.648Z,100307.95
2018-11-05T16:17:43.160Z,100315.03
2018-11-05T16:20:19.925Z,100316.38
2018-11-05T16:22:56.831Z,100316.89
2018-11-05T16:25:31.980Z,100322.52
2018-11-05T16:31:12.744Z,100317.59
2018-11-05T16:33:43.091Z,100320.00
2018-11-05T16:39:13.109Z,100308.91
2018-11-05T16:41:45.582Z,100301.60
2018-11-05T16:44:37.610Z,100301.67
2018-11-05T16:47:10.379Z,100298.45
2018-11-05T16:49:43.388Z,100304.52
2018-11-05T16:52:12.394Z,100309.41
2018-11-05T16:54:41.384Z,100310.47
2018-11-05T17:00:10.706Z,100313.53
2018-11-05T17:02:40.076Z,100317.80
2018-11-05T17:05:08.812Z,100321.89
2018-11-05T17:07:58.043Z,100322.33
2018-11-05T17:10:30.298Z,100330.20
2018-11-05T17:13:01.266Z,100330.09
2018-11-05T17:15:37.338Z,100329.72
2018-11-05T17:18:07.309Z,100331.44
2018-11-05T17:20:43.226Z,100328.16
2018-11-05T17:23:29.537Z,100326.22
2018-11-05T17:25:58.494Z,100324.20
2018-11-05T17:28:28.463Z,100322.36
2018-11-05T17:31:10.403Z,100316.36
2018-11-05T17:33:50.514Z,100325.52
2018-11-05T17:36:41.756Z,100322.23
2018-11-05T17:39:11.797Z,100322.70
2018-11-05T17:41:41.116Z,100314.31
2018-11-05T17:44:14.362Z,100308.41
2018-11-05T17:46:53.516Z,100308.11
2018-11-05T17:52:25.325Z,100314.19
2018-11-05T17:55:03.718Z,100310.43
2018-11-05T17:57:33.640Z,100308.54
2018-11-05T18:00:10.080Z,100309.08
2018-11-05T18:02:43.154Z,100312.88
2018-11-05T18:05:18.124Z,100307.94
2018-11-05T18:07:47.295Z,100308.45
2018-11-05T18:10:19.693Z,100307.91
2018-11-05T18:12:50.690Z,100298.92
2018-11-05T18:15:19.701Z,100296.48
2018-11-05T18:17:50.585Z,100297.20
2018-11-05T18:20:19.612Z,100291.77
2018-11-05T18:22:52.632Z,100292.56
2018-11-05T18:25:21.664Z,100289.27
2018-11-05T18:27:50.627Z,100285.52
2018-11-05T18:30:31.098Z,100284.42
2018-11-05T18:33:05.613Z,100290.03
2018-11-05T18:35:41.488Z,100290.25
2018-11-05T18:38:13.591Z,100290.11
2018-11-05T18:40:48.380Z,100285.52
2018-11-05T18:43:24.871Z,100276.55
2018-11-05T18:45:53.848Z,100276.08
2018-11-05T18:48:24.761Z,100277.09
2018-11-05T18:51:00.526Z,100279.98
2018-11-05T18:53:33.562Z,100285.55
2018-11-05T18:56:09.386Z,100274.91
2018-11-05T19:01:33.781Z,100286.39
2018-11-05T19:04:09.038Z,100283.95
2018-11-05T19:06:45.304Z,100285.05
2018-11-05T19:09:14.264Z,100281.42
2018-11-05T19:11:44.166Z,100277.42
2018-11-05T19:14:13.305Z,100285.91
2018-11-05T19:16:42.295Z,100287.27
2018-11-05T19:19:13.191Z,100278.28
2018-11-05T19:21:44.177Z,100283.12
2018-11-05T19:24:23.798Z,100289.02
2018-11-05T19:26:54.667Z,100294.48
2018-11-05T19:29:23.848Z,100290.88
2018-11-05T19:31:56.803Z,100289.48
2018-11-05T19:34:46.699Z,100294.97
2018-11-05T19:37:16.312Z,100295.02
2018-11-05T19:39:55.197Z,100306.09
2018-11-05T19:42:24.699Z,100294.67
2018-11-05T19:44:54.209Z,100300.61
2018-11-05T19:47:23.695Z,100301.56
2018-11-05T19:49:54.988Z,100294.87
2018-11-05T19:52:28.998Z,100301.80
2018-11-05T19:54:59.730Z,100301.61
2018-11-05T19:57:29.711Z,100300.26
2018-11-05T19:59:59.560Z,100297.56
2018-11-05T20:02:30.044Z,100292.66
2018-11-05T20:05:02.536Z,100283.42
2018-11-05T20:07:36.741Z,100286.58
2018-11-05T20:10:10.437Z,100285.33
2018-11-05T20:12:44.910Z,100283.77
2018-11-05T20:15:21.060Z,100276.09
2018-11-05T20:17:56.422Z,100273.64
2018-11-05T20:20:26.196Z,100270.36
2018-11-05T20:22:56.219Z,100265.96
2018-11-05T20:25:26.152Z,100256.80
2018-11-05T20:27:55.157Z,100254.64
2018-11-05T20:30:27.234Z,100256.48
2018-11-05T20:32:58.276Z,100271.37
2018-11-05T20:35:28.891Z,100267.78
2018-11-05T20:38:15.041Z,100264.47
2018-11-05T20:40:49.773Z,100265.92
2018-11-05T20:43:35.058Z,100263.69
2018-11-05T20:46:09.298Z,100259.22
2018-11-05T20:48:45.827Z,100260.34
2018-11-05T20:51:22.850Z,100273.35
2018-11-05T20:53:51.880Z,100279.62
2018-11-05T20:56:39.592Z,100281.78
2018-11-05T20:59:12.160Z,100276.68
2018-11-05T21:01:44.678Z,100281.53
2018-11-05T21:04:24.229Z,100283.03
2018-11-05T21:06:54.233Z,100285.59
2018-11-05T21:09:28.636Z,100282.98
2018-11-05T21:11:59.626Z,100283.28
2018-11-05T21:14:53.251Z,100285.98
2018-11-05T21:17:27.180Z,100278.70
2018-11-05T21:22:51.468Z,100280.55
2018-11-05T21:25:25.687Z,100281.20
2018-11-05T21:27:58.733Z,100281.70
2018-11-05T21:30:27.679Z,100275.01
2018-11-05T21:33:08.536Z,100271.92
2018-11-05T21:35:37.577Z,100268.83
2018-11-05T21:38:16.309Z,100268.98
2018-11-05T21:40:56.397Z,100269.12
2018-11-05T21:43:25.481Z,100263.64
2018-11-05T21:45:55.570Z,100272.33
2018-11-05T21:48:26.514Z,100273.82
2018-11-05T21:51:05.208Z,100271.77
2018-11-05T21:56:43.632Z,100270.42
2018-11-05T21:59:12.591Z,100269.70
2018-11-05T22:01:53.516Z,100262.67
2018-11-05T22:04:22.509Z,100269.55
2018-11-05T22:06:57.205Z,100265.85
2018-11-05T22:09:26.171Z,100256.61
2018-11-05T22:12:00.237Z,100258.33
2018-11-05T22:14:32.759Z,100251.84
2018-11-05T22:20:01.809Z,100248.03
2018-11-05T22:22:42.306Z,100249.92
2018-11-05T22:25:13.177Z,100253.38
2018-11-05T22:27:43.169Z,100255.52
2018-11-05T22:30:12.949Z,100252.97
2018-11-05T22:32:51.758Z,100264.25
2018-11-05T22:35:20.865Z,100265.44
2018-11-05T22:37:56.747Z,100262.25
2018-11-05T22:40:26.713Z,100265.09
2018-11-05T22:45:52.605Z,100258.94
2018-11-05T22:48:27.131Z,100256.70
2018-11-05T22:51:04.352Z,100262.15
2018-11-05T22:53:37.716Z,100261.44
2018-11-05T22:56:22.752Z,100262.94
2018-11-05T22:58:51.660Z,100264.69
2018-11-05T23:01:32.171Z,100267.17
2018-11-05T23:04:02.948Z,100271.06
2018-11-05T23:06:32.586Z,100271.97
2018-11-05T23:09:02.528Z,100267.52
2018-11-05T23:11:33.412Z,100262.81
2018-11-05T23:14:08.951Z,100269.37
2018-11-05T23:16:44.421Z,100264.47
2018-11-05T23:19:14.392Z,100268.98
2018-11-05T23:21:49.498Z,100263.34
2018-11-05T23:24:18.447Z,100263.88
2018-11-05T23:26:47.325Z,100277.95
2018-11-05T23:29:16.278Z,100271.86
2018-11-05T23:31:45.181Z,100272.22
2018-11-05T23:34:14.108Z,100267.44
2018-11-05T23:36:42.982Z,100269.58
2018-11-05T23:39:29.724Z,100270.69
2018-11-05T23:42:15.942Z,100274.41
2018-11-05T23:44:45.836Z,100281.20
2018-11-05T23:47:28.244Z,100282.41
2018-11-05T23:49:57.851Z,100272.17
2018-11-05T23:55:21.073Z,100277.62
2018-11-05T23:57:49.976Z,100276.08
